Time;durP1;ratioP1;P1;durP2;ratioP2;P2;SDS_P1;SDS_P2;PMS_P1;PMS_P2;Temp;Humidity;BMP_temperature;BMP_pressure;BME280_temperature;BME280_humidity;BME280_pressure;Samples;Min_cycle;Max_cycle;Signal;HPM_P1;HPM_P2
2022/04/01 00:00:56;;;;;;;4.00;1.73;;;1.00;99.90;;;;;;5118265;27;20097;-75
2022/04/01 00:03:22;;;;;;;7.75;2.10;;;1.00;99.90;;;;;;5136360;27;20564;-75
2022/04/01 00:05:48;;;;;;;5.43;1.63;;;1.00;99.90;;;;;;5101204;27;20498;-79
2022/04/01 00:08:13;;;;;;;3.30;1.65;;;1.00;99.90;;;;;;5118406;27;20077;-75
2022/04/01 00:10:39;;;;;;;5.93;1.73;;;1.00;99.90;;;;;;5136086;27;20039;-75
2022/04/01 00:13:05;;;;;;;2.33;1.60;;;1.10;99.90;;;;;;5135540;27;20054;-76
2022/04/01 00:15:31;;;;;;;6.13;1.60;;;1.00;99.90;;;;;;5117991;27;20076;-75
2022/04/01 00:17:57;;;;;;;1.90;1.60;;;1.00;99.90;;;;;;5100991;27;20066;-75
2022/04/01 00:20:23;;;;;;;2.85;1.60;;;1.10;99.90;;;;;;5136243;27;20395;-75
2022/04/01 00:22:48;;;;;;;4.38;2.28;;;1.10;99.90;;;;;;5118038;27;20043;-75
2022/04/01 00:25:14;;;;;;;2.72;1.42;;;1.10;99.90;;;;;;5136001;27;20074;-75
2022/04/01 00:27:40;;;;;;;3.05;1.45;;;1.10;99.90;;;;;;5136409;27;20060;-75
2022/04/01 00:30:06;;;;;;;4.32;1.52;;;1.10;99.90;;;;;;5135622;27;20387;-75
2022/04/01 00:32:32;;;;;;;2.67;1.77;;;1.10;99.90;;;;;;5117667;27;20039;-76
2022/04/01 00:34:58;;;;;;;2.55;1.50;;;1.10;99.90;;;;;;5135472;27;20125;-75
2022/04/01 00:37:23;;;;;;;3.05;1.73;;;1.10;99.90;;;;;;5117776;27;20043;-75
2022/04/01 00:39:49;;;;;;;2.78;1.30;;;1.20;99.90;;;;;;5135855;27;20051;-75
2022/04/01 00:42:15;;;;;;;3.17;1.60;;;1.10;99.90;;;;;;5135257;27;20043;-75
2022/04/01 00:44:41;;;;;;;2.70;1.60;;;1.20;99.90;;;;;;5135845;27;20047;-75
2022/04/01 00:47:14;;;;;;;2.15;1.70;;;1.10;99.90;;;;;;5100098;27;20126;-75
2022/04/01 00:49:40;;;;;;;2.58;1.50;;;1.10;99.90;;;;;;5135907;27;20039;-75
2022/04/01 00:52:11;;;;;;;2.50;1.35;;;1.10;99.90;;;;;;5117054;27;20064;-75
2022/04/01 00:54:37;;;;;;;2.25;1.42;;;1.10;99.90;;;;;;5135808;27;20051;-75
2022/04/01 00:57:03;;;;;;;3.58;1.70;;;1.10;99.90;;;;;;5116883;27;20390;-75
2022/04/01 00:59:29;;;;;;;2.58;1.70;;;1.10;99.90;;;;;;5135731;27;20058;-75
2022/04/01 01:01:55;;;;;;;2.28;1.42;;;1.20;99.90;;;;;;5135089;27;20047;-78
2022/04/01 01:04:21;;;;;;;2.67;1.67;;;1.20;99.90;;;;;;5116809;27;20051;-75
2022/04/01 01:06:49;;;;;;;2.95;1.60;;;1.10;99.90;;;;;;5135486;27;20452;-75
2022/04/01 01:09:14;;;;;;;3.92;1.73;;;1.20;99.90;;;;;;5116671;27;20039;-75
2022/04/01 01:11:41;;;;;;;1.90;1.35;;;1.20;99.90;;;;;;5135371;27;20100;-75
2022/04/01 01:14:08;;;;;;;2.28;1.58;;;1.30;99.90;;;;;;5116668;27;20045;-75
2022/04/01 01:16:40;;;;;;;2.42;1.48;;;1.30;99.90;;;;;;5135125;27;20039;-75
2022/04/01 01:19:12;;;;;;;2.28;1.30;;;1.30;99.90;;;;;;5134675;27;20394;-75
2022/04/01 01:21:38;;;;;;;2.35;1.48;;;1.30;99.90;;;;;;5100014;27;20043;-75
2022/04/01 01:24:05;;;;;;;2.30;1.50;;;1.40;99.90;;;;;;5116504;27;20445;-75
2022/04/01 01:26:31;;;;;;;3.30;1.30;;;1.40;99.90;;;;;;5116762;27;20046;-76
2022/04/01 01:28:57;;;;;;;2.85;1.50;;;1.40;99.90;;;;;;5082814;27;20050;-75
2022/04/01 01:31:24;;;;;;;2.45;1.50;;;1.40;99.90;;;;;;5100037;27;20046;-75
2022/04/01 01:33:50;;;;;;;3.33;1.63;;;1.40;99.90;;;;;;5134960;27;20444;-75
2022/04/01 01:36:16;;;;;;;2.42;1.50;;;1.40;99.90;;;;;;5116371;27;20138;-75
2022/04/01 01:38:41;;;;;;;3.55;1.55;;;1.40;99.90;;;;;;5134876;27;20490;-75
2022/04/01 01:41:07;;;;;;;3.17;1.50;;;1.50;99.90;;;;;;5116223;27;20039;-75
2022/04/01 01:43:33;;;;;;;5.95;1.52;;;1.50;99.90;;;;;;5099583;27;20047;-75
2022/04/01 01:45:58;;;;;;;4.15;1.83;;;1.50;99.90;;;;;;5116732;27;20043;-75
2022/04/01 01:48:24;;;;;;;2.42;1.45;;;1.50;99.90;;;;;;5134302;27;20481;-75
2022/04/01 01:56:18;;;;;;;1.80;1.30;;;1.50;99.90;;;;;;5134105;27;20403;-74
2022/04/01 01:58:44;;;;;;;3.00;1.40;;;1.60;99.90;;;;;;5116105;27;20039;-75
2022/04/01 02:01:11;;;;;;;2.25;1.38;;;1.60;99.90;;;;;;5098971;27;20062;-75
2022/04/01 02:03:37;;;;;;;1.95;1.48;;;1.60;99.90;;;;;;5133787;27;20085;-75
2022/04/01 02:06:03;;;;;;;3.35;1.25;;;1.60;99.90;;;;;;5133691;27;20047;-79
2022/04/01 02:08:30;;;;;;;2.95;1.40;;;1.60;99.90;;;;;;5134193;27;20112;-75
2022/04/01 02:10:56;;;;;;;3.08;1.60;;;1.60;99.90;;;;;;5134191;27;20049;-74
2022/04/01 02:13:22;;;;;;;5.20;2.40;;;1.60;99.90;;;;;;5098493;27;20039;-75
2022/04/01 02:15:47;;;;;;;6.07;1.60;;;1.60;99.90;;;;;;5115369;27;20039;-75
2022/04/01 02:18:13;;;;;;;2.25;1.42;;;1.70;99.90;;;;;;5115206;27;20047;-75
2022/04/01 02:20:39;;;;;;;3.72;1.38;;;1.70;99.90;;;;;;5134095;27;20039;-75
2022/04/01 02:23:05;;;;;;;3.63;1.88;;;1.70;99.90;;;;;;5133583;27;20139;-75
2022/04/01 02:25:31;;;;;;;2.83;1.20;;;1.70;99.90;;;;;;5133865;27;20054;-75
2022/04/01 02:27:57;;;;;;;4.03;1.52;;;1.70;99.90;;;;;;5082033;27;20047;-75
2022/04/01 02:30:23;;;;;;;2.38;1.45;;;1.80;99.90;;;;;;5115140;27;20130;-75
2022/04/01 02:32:49;;;;;;;2.45;1.45;;;1.80;99.90;;;;;;5115461;27;20456;-75
2022/04/01 02:35:15;;;;;;;5.00;1.90;;;1.70;99.90;;;;;;5098163;27;20382;-75
2022/04/01 02:37:41;;;;;;;2.95;1.42;;;1.70;99.90;;;;;;5098571;27;20058;-75
2022/04/01 02:40:07;;;;;;;2.13;1.30;;;1.70;99.90;;;;;;5133639;27;20043;-75
2022/04/01 02:42:32;;;;;;;5.60;1.17;;;1.80;99.90;;;;;;5081950;27;20039;-75
2022/04/01 02:44:58;;;;;;;3.72;1.27;;;1.90;99.90;;;;;;5133320;27;20517;-75
2022/04/01 02:47:26;;;;;;;5.28;1.50;;;1.80;99.90;;;;;;5114798;27;20051;-75
2022/04/01 02:49:52;;;;;;;2.95;1.48;;;1.90;99.90;;;;;;5115898;28;20046;-75
2022/04/01 02:52:18;;;;;;;3.35;1.50;;;1.80;99.90;;;;;;5114664;28;20134;-75
2022/04/01 02:54:43;;;;;;;3.25;1.30;;;1.80;99.90;;;;;;5133279;27;20049;-75
2022/04/01 02:57:09;;;;;;;5.55;1.63;;;1.70;99.90;;;;;;5133214;28;20131;-80
2022/04/01 02:59:36;;;;;;;1.90;1.52;;;1.80;99.90;;;;;;5115045;28;20039;-76
2022/04/01 03:02:02;;;;;;;5.18;1.40;;;1.80;99.90;;;;;;5115120;28;20057;-75
2022/04/01 03:04:28;;;;;;;4.05;1.70;;;1.80;99.90;;;;;;5114952;28;20093;-75
2022/04/01 03:06:54;;;;;;;3.30;1.60;;;1.80;99.90;;;;;;5133464;28;20074;-75
2022/04/01 03:09:19;;;;;;;3.40;1.60;;;1.80;99.90;;;;;;5114660;28;20043;-75
2022/04/01 03:11:45;;;;;;;5.15;1.50;;;1.80;99.90;;;;;;5133456;28;20054;-75
2022/04/01 03:14:11;;;;;;;4.00;1.63;;;1.80;99.90;;;;;;5114822;28;20046;-75
2022/04/01 03:16:37;;;;;;;4.20;1.40;;;1.80;99.90;;;;;;5115114;28;20047;-75
2022/04/01 03:19:04;;;;;;;4.10;1.30;;;1.80;99.90;;;;;;5133062;28;20122;-76
2022/04/01 03:21:29;;;;;;;4.97;1.55;;;1.80;99.90;;;;;;5114372;28;20051;-75
2022/04/01 03:23:55;;;;;;;4.32;1.55;;;1.80;99.90;;;;;;5133258;28;20046;-75
2022/04/01 03:26:21;;;;;;;2.22;1.50;;;1.80;99.90;;;;;;5132841;27;20082;-75
2022/04/01 03:28:47;;;;;;;3.30;1.65;;;1.90;99.90;;;;;;5118953;27;20040;-75
2022/04/01 03:31:14;;;;;;;3.83;1.90;;;1.80;99.90;;;;;;5137117;27;20047;-77
2022/04/01 03:33:41;;;;;;;2.80;1.70;;;1.90;99.90;;;;;;5085543;27;20130;-75
2022/04/01 03:36:07;;;;;;;3.78;1.50;;;1.90;99.90;;;;;;5119139;27;20047;-75
2022/04/01 03:38:34;;;;;;;3.42;1.45;;;1.90;99.90;;;;;;5118719;27;20047;-75
2022/04/01 03:41:00;;;;;;;4.20;1.40;;;1.90;99.90;;;;;;5119191;27;20043;-76
2022/04/01 03:43:26;;;;;;;3.33;1.45;;;1.90;99.90;;;;;;5101544;27;20051;-75
2022/04/01 03:45:52;;;;;;;3.78;1.58;;;1.90;99.90;;;;;;5137167;27;20410;-75
2022/04/01 03:48:31;;;;;;;3.03;1.60;;;1.90;99.90;;;;;;5101546;27;20051;-75
2022/04/01 03:50:57;;;;;;;2.17;1.48;;;1.90;99.90;;;;;;5118934;27;20043;-75
2022/04/01 03:53:27;;;;;;;2.95;1.50;;;1.90;99.90;;;;;;5136493;27;20046;-75
2022/04/01 03:55:55;;;;;;;2.60;1.63;;;1.90;99.90;;;;;;5119355;27;20108;-75
2022/04/01 03:58:31;;;;;;;3.97;1.38;;;1.90;99.90;;;;;;5136504;27;20053;-75
2022/04/01 04:01:00;;;;;;;3.60;1.40;;;1.90;99.90;;;;;;5136890;27;20097;-75
2022/04/01 04:03:26;;;;;;;4.55;1.42;;;1.90;99.90;;;;;;5136463;27;20047;-75
2022/04/01 04:05:53;;;;;;;4.35;1.40;;;1.90;99.90;;;;;;5118643;27;20091;-75
2022/04/01 04:08:19;;;;;;;6.57;1.40;;;1.90;99.90;;;;;;5101329;27;20065;-76
2022/04/01 04:10:46;;;;;;;3.90;1.50;;;1.90;99.90;;;;;;5136514;27;20122;-75
2022/04/01 04:13:12;;;;;;;3.78;1.30;;;1.90;99.90;;;;;;5118074;27;20092;-75
2022/04/01 04:15:43;;;;;;;2.55;1.15;;;1.90;99.90;;;;;;5101149;27;20409;-75
2022/04/01 04:18:11;;;;;;;2.65;1.70;;;1.90;99.90;;;;;;5118441;27;20054;-75
2022/04/01 04:20:49;;;;;;;8.25;1.23;;;1.90;99.90;;;;;;5135940;27;20051;-75
2022/04/01 04:23:29;;;;;;;1.60;1.10;;;1.90;99.90;;;;;;5136303;27;20050;-75
2022/04/01 04:26:00;;;;;;;4.15;1.20;;;1.90;99.90;;;;;;5136341;27;20433;-75
2022/04/01 04:28:26;;;;;;;2.78;1.13;;;1.90;99.90;;;;;;5117604;27;20447;-75
2022/04/01 04:30:56;;;;;;;3.58;1.00;;;1.90;99.90;;;;;;5117783;27;20051;-75
2022/04/01 04:33:33;;;;;;;4.07;1.05;;;1.90;99.90;;;;;;5100503;27;20121;-78
2022/04/01 04:36:06;;;;;;;5.57;1.20;;;1.90;99.90;;;;;;5118448;27;20126;-74
2022/04/01 04:38:35;;;;;;;2.80;0.80;;;1.90;99.90;;;;;;5100139;27;20130;-75
2022/04/01 04:41:01;;;;;;;3.40;1.17;;;1.90;99.90;;;;;;5118001;27;20043;-75
2022/04/01 04:43:27;;;;;;;4.55;1.20;;;1.90;99.90;;;;;;5135627;27;20390;-74
2022/04/01 04:45:52;;;;;;;3.08;1.13;;;1.90;99.90;;;;;;5136023;27;20398;-74
2022/04/01 04:48:18;;;;;;;3.83;1.00;;;1.90;99.90;;;;;;5117788;27;20093;-74
2022/04/01 04:50:47;;;;;;;2.58;1.00;;;1.90;99.90;;;;;;5100202;27;20047;-74
2022/04/01 04:53:13;;;;;;;3.00;1.10;;;1.90;99.90;;;;;;5135786;27;20039;-74
2022/04/01 04:55:39;;;;;;;3.17;1.13;;;1.90;99.90;;;;;;5117276;27;20043;-73
2022/04/01 04:58:05;;;;;;;4.07;1.40;;;1.90;99.90;;;;;;5117407;27;20051;-74
2022/04/01 05:00:31;;;;;;;5.65;1.17;;;1.90;99.90;;;;;;5099868;27;20510;-73
2022/04/01 05:03:10;;;;;;;4.88;1.60;;;1.90;99.90;;;;;;5135543;27;20059;-73
2022/04/01 05:05:39;;;;;;;4.03;1.10;;;1.90;99.90;;;;;;5135269;27;20059;-75
2022/04/01 05:08:24;;;;;;;2.78;0.98;;;1.90;99.90;;;;;;5135526;27;20060;-75
2022/04/01 05:11:06;;;;;;;3.60;1.00;;;1.90;99.90;;;;;;5135350;27;20039;-74
2022/04/01 05:14:04;;;;;;;4.38;1.23;;;1.90;99.90;;;;;;5116479;27;20039;-75
2022/04/01 05:16:54;;;;;;;5.30;1.33;;;1.90;99.90;;;;;;5061386;27;20067;-75
2022/04/01 05:19:31;;;;;;;3.55;1.33;;;1.90;99.90;;;;;;5116654;27;20130;-75
2022/04/01 05:22:05;;;;;;;2.88;1.13;;;1.80;99.90;;;;;;5099867;27;20051;-75
2022/04/01 05:24:42;;;;;;;2.95;1.23;;;1.90;99.90;;;;;;5134645;27;20050;-75
2022/04/01 05:27:15;;;;;;;3.97;1.27;;;1.90;99.90;;;;;;5116776;27;20047;-75
2022/04/01 05:29:42;;;;;;;2.92;1.70;;;1.90;99.90;;;;;;5099816;27;20395;-74
2022/04/01 05:32:10;;;;;;;3.40;1.20;;;1.90;99.90;;;;;;5134494;27;20510;-74
2022/04/01 05:34:40;;;;;;;3.13;1.23;;;1.90;99.90;;;;;;5116345;27;20090;-75
2022/04/01 05:37:06;;;;;;;3.00;1.10;;;1.90;99.90;;;;;;5134736;27;20051;-75
2022/04/01 05:39:33;;;;;;;3.95;1.40;;;1.90;99.90;;;;;;5115745;27;20039;-75
2022/04/01 05:41:58;;;;;;;2.17;1.10;;;1.90;99.90;;;;;;5099670;27;20111;-75
2022/04/01 05:44:25;;;;;;;3.38;1.20;;;1.90;99.90;;;;;;5116216;27;20126;-74
2022/04/01 05:46:51;;;;;;;3.80;1.30;;;2.00;99.90;;;;;;5134160;27;20054;-74
2022/04/01 05:49:18;;;;;;;5.50;1.58;;;2.00;99.90;;;;;;5115375;27;20035;-74
2022/04/01 05:51:44;;;;;;;3.03;1.20;;;2.00;99.90;;;;;;5133928;27;20051;-75
2022/04/01 05:54:10;;;;;;;4.63;1.77;;;2.00;99.90;;;;;;5099161;27;20112;-75
2022/04/01 05:56:37;;;;;;;3.58;1.20;;;2.00;99.90;;;;;;5115620;27;20043;-74
2022/04/01 05:59:03;;;;;;;3.92;1.23;;;2.20;99.90;;;;;;5116269;27;20405;-75
2022/04/01 06:01:59;;;;;;;4.90;1.25;;;2.10;99.90;;;;;;5099113;27;20053;-75
2022/04/01 06:04:43;;;;;;;6.72;1.50;;;2.10;99.90;;;;;;5115994;27;20047;-74
2022/04/01 06:07:13;;;;;;;4.20;1.40;;;2.10;99.90;;;;;;5134301;27;20047;-74
2022/04/01 06:09:41;;;;;;;5.53;1.35;;;2.20;99.90;;;;;;5116119;27;20395;-74
2022/04/01 06:12:21;;;;;;;3.83;1.10;;;2.20;99.90;;;;;;5134327;27;20043;-74
2022/04/01 06:15:19;;;;;;;4.22;1.30;;;2.20;99.90;;;;;;5083358;27;20492;-74
2022/04/01 06:18:07;;;;;;;3.92;1.70;;;2.20;99.90;;;;;;5117657;27;20047;-74
2022/04/01 06:20:34;;;;;;;3.50;1.00;;;2.20;99.90;;;;;;5134245;27;20050;-74
2022/04/01 06:23:05;;;;;;;4.55;1.13;;;2.20;99.90;;;;;;5099261;27;20158;-74
2022/04/01 06:25:32;;;;;;;1.95;1.42;;;2.30;99.90;;;;;;5116782;27;20127;-75
2022/04/01 06:28:24;;;;;;;3.00;1.40;;;2.30;99.90;;;;;;5081827;27;20391;-74
2022/04/01 06:30:51;;;;;;;2.28;1.25;;;2.30;99.90;;;;;;5129023;27;20047;-74
2022/04/01 06:33:30;;;;;;;2.75;1.27;;;2.30;99.90;;;;;;5134016;27;20074;-74
2022/04/01 06:36:00;;;;;;;1.52;1.08;;;2.40;99.90;;;;;;5116723;27;20400;-74
2022/04/01 06:38:51;;;;;;;3.78;2.00;;;2.30;99.90;;;;;;5115573;27;20133;-74
2022/04/01 06:41:26;;;;;;;;;;;2.40;99.90;;;;;;5100949;27;20047;-74
2022/04/01 06:43:52;;;;;;;2.72;1.10;;;2.30;99.90;;;;;;5133588;27;20268;-74
2022/04/01 06:46:17;;;;;;;2.83;1.30;;;2.40;99.90;;;;;;5115594;27;20167;-74
2022/04/01 06:48:43;;;;;;;3.25;1.25;;;2.40;99.90;;;;;;5133434;27;20368;-74
2022/04/01 06:51:09;;;;;;;4.95;1.40;;;2.40;99.90;;;;;;5133773;27;20363;-74
2022/04/01 06:53:39;;;;;;;2.25;1.20;;;2.50;99.90;;;;;;5115827;28;20086;-74
2022/04/01 06:56:04;;;;;;;2.00;1.08;;;2.50;99.90;;;;;;5133738;27;20043;-74
2022/04/01 06:58:31;;;;;;;2.22;1.17;;;2.60;99.90;;;;;;5115390;28;20050;-74
2022/04/01 07:00:57;;;;;;;1.88;1.30;;;2.50;99.90;;;;;;5117500;27;20093;-74
2022/04/01 07:03:23;;;;;;;3.67;1.20;;;2.60;99.90;;;;;;5101470;28;20052;-74
2022/04/01 07:05:49;;;;;;;4.65;1.27;;;2.70;99.90;;;;;;5119521;27;20055;-74
2022/04/01 07:08:16;;;;;;;2.50;1.05;;;2.60;99.90;;;;;;5118686;28;20054;-73
2022/04/01 07:10:41;;;;;;;3.42;1.40;;;2.60;99.90;;;;;;5119483;28;20044;-75
2022/04/01 07:13:08;;;;;;;6.57;1.40;;;2.70;99.90;;;;;;5119899;28;20153;-74
2022/04/01 07:15:34;;;;;;;4.07;1.48;;;2.70;99.90;;;;;;5120047;27;20130;-74
2022/04/01 07:18:00;;;;;;;3.30;1.15;;;2.70;99.90;;;;;;5101226;28;20587;-75
2022/04/01 07:20:26;;;;;;;3.10;1.10;;;2.70;99.90;;;;;;5119597;28;20047;-74
2022/04/01 07:22:53;;;;;;;2.08;1.20;;;2.80;99.90;;;;;;5118370;28;20126;-74
2022/04/01 07:25:18;;;;;;;2.55;1.20;;;2.80;99.90;;;;;;5118858;28;20048;-74
2022/04/01 07:27:44;;;;;;;2.75;1.10;;;2.80;99.90;;;;;;5118284;28;20044;-74
2022/04/01 07:30:10;;;;;;;3.60;1.20;;;2.80;99.90;;;;;;5119667;27;20048;-74
2022/04/01 07:32:36;;;;;;;2.28;1.10;;;2.80;99.90;;;;;;5119398;27;20464;-74
2022/04/01 07:35:09;;;;;;;1.92;1.00;;;2.90;99.90;;;;;;5118048;28;20048;-75
2022/04/01 07:37:35;;;;;;;6.05;1.75;;;2.90;99.90;;;;;;5119734;27;20048;-74
2022/04/01 07:40:01;;;;;;;4.15;1.02;;;2.90;99.90;;;;;;5117799;28;20089;-75
2022/04/01 07:42:27;;;;;;;2.67;0.93;;;2.90;99.90;;;;;;5119528;28;20040;-74
2022/04/01 07:44:53;;;;;;;2.72;1.20;;;2.90;99.30;;;;;;5101095;28;20052;-74
2022/04/01 07:47:19;;;;;;;2.45;1.20;;;2.90;99.90;;;;;;5101399;28;20548;-74
2022/04/01 07:49:45;;;;;;;2.10;0.90;;;2.90;99.90;;;;;;5119619;27;20048;-74
2022/04/01 07:52:11;;;;;;;3.22;0.93;;;2.90;99.90;;;;;;5118482;28;20058;-74
2022/04/01 07:54:40;;;;;;;2.85;1.13;;;3.00;99.90;;;;;;5101443;28;20075;-74
2022/04/01 07:57:06;;;;;;;3.08;1.20;;;2.90;99.90;;;;;;5117851;28;20054;-74
2022/04/01 07:59:32;;;;;;;2.08;1.10;;;3.00;99.90;;;;;;5118156;28;20165;-74
2022/04/01 08:01:59;;;;;;;3.42;1.20;;;3.00;99.90;;;;;;5117905;28;20130;-74
2022/04/01 08:04:27;;;;;;;3.65;1.20;;;3.00;99.90;;;;;;5118079;28;20066;-74
2022/04/01 08:06:56;;;;;;;1.63;1.08;;;3.00;99.90;;;;;;5119073;27;20058;-74
2022/04/01 08:09:23;;;;;;;3.70;1.13;;;3.10;99.90;;;;;;5118146;28;20042;-74
2022/04/01 08:11:49;;;;;;;4.70;1.42;;;3.00;99.90;;;;;;5117390;28;20047;-78
2022/04/01 08:14:17;;;;;;;4.03;1.45;;;3.00;99.40;;;;;;5097449;28;20448;-74
2022/04/01 08:16:42;;;;;;;2.63;1.30;;;3.00;99.90;;;;;;5116184;28;20172;-74
2022/04/01 08:19:08;;;;;;;3.33;1.17;;;3.00;99.90;;;;;;5115546;28;20043;-74
2022/04/01 08:21:34;;;;;;;3.20;1.52;;;3.00;99.90;;;;;;5114960;28;20050;-74
2022/04/01 08:24:00;;;;;;;3.60;1.90;;;3.00;99.90;;;;;;5114461;28;20089;-75
2022/04/01 08:26:26;;;;;;;4.13;2.08;;;3.00;99.90;;;;;;5097597;28;20071;-74
2022/04/01 08:28:51;;;;;;;1.80;1.50;;;3.00;99.90;;;;;;5115465;28;20088;-74
2022/04/01 08:31:17;;;;;;;2.85;1.60;;;2.90;99.90;;;;;;5097798;28;20433;-74
2022/04/01 08:33:43;;;;;;;3.15;1.90;;;2.90;99.90;;;;;;5097785;28;20047;-74
2022/04/01 08:36:09;;;;;;;3.10;1.63;;;2.90;99.90;;;;;;5114085;28;20424;-74
2022/04/01 08:38:34;;;;;;;2.30;1.50;;;3.00;99.90;;;;;;5114384;28;20039;-74
2022/04/01 08:41:00;;;;;;;2.88;1.65;;;3.00;99.90;;;;;;5114930;28;20053;-75
2022/04/01 08:43:31;;;;;;;5.15;1.98;;;3.00;99.90;;;;;;5115610;28;20058;-74
2022/04/01 08:45:59;;;;;;;2.60;1.60;;;3.10;99.90;;;;;;5115176;28;20051;-74
2022/04/01 08:48:25;;;;;;;2.88;1.90;;;3.00;99.90;;;;;;5115521;28;20048;-73
2022/04/01 08:50:51;;;;;;;3.42;1.65;;;3.10;99.90;;;;;;5114189;28;20118;-74
2022/04/01 08:53:17;;;;;;;4.38;1.83;;;3.10;99.90;;;;;;5113795;28;20181;-74
2022/04/01 08:55:49;;;;;;;2.40;1.73;;;3.00;99.90;;;;;;5115435;28;20050;-74
2022/04/01 08:58:19;;;;;;;3.15;1.70;;;3.00;99.90;;;;;;5114869;28;20101;-74
2022/04/01 09:00:45;;;;;;;2.95;1.50;;;3.00;99.90;;;;;;5115412;28;20454;-73
2022/04/01 09:03:11;;;;;;;4.32;1.58;;;3.00;99.90;;;;;;5122822;27;20059;-74
2022/04/01 09:05:38;;;;;;;4.10;1.70;;;3.00;99.90;;;;;;5100558;27;20047;-74
2022/04/01 09:08:05;;;;;;;2.55;1.70;;;3.00;99.90;;;;;;5117069;27;20130;-73
2022/04/01 09:10:32;;;;;;;5.05;2.05;;;3.00;99.90;;;;;;5100489;27;20394;-75
2022/04/01 09:12:57;;;;;;;6.43;1.90;;;3.00;99.90;;;;;;5117135;27;20433;-74
2022/04/01 09:15:37;;;;;;;3.08;1.70;;;3.00;99.90;;;;;;5135400;27;20039;-73
2022/04/01 09:18:03;;;;;;;4.30;1.92;;;3.00;99.90;;;;;;5118960;27;20043;-74
2022/04/01 09:20:29;;;;;;;6.10;1.80;;;3.00;99.90;;;;;;5117035;27;20053;-74
2022/04/01 09:22:58;;;;;;;3.15;2.15;;;3.00;99.90;;;;;;5099878;27;20471;-74
2022/04/01 09:25:24;;;;;;;4.03;2.30;;;3.00;99.90;;;;;;5115761;27;20501;-73
2022/04/01 09:27:53;;;;;;;4.53;2.50;;;3.00;99.90;;;;;;5135266;27;20122;-73
2022/04/01 09:30:20;;;;;;;5.00;2.53;;;3.00;99.90;;;;;;5134680;27;20099;-74
2022/04/01 09:32:57;;;;;;;5.93;3.15;;;3.10;99.90;;;;;;5135140;27;20058;-74
2022/04/01 09:35:24;;;;;;;8.48;2.72;;;3.00;99.90;;;;;;5118088;27;20368;-74
2022/04/01 09:37:54;;;;;;;3.72;2.75;;;3.00;99.90;;;;;;5099978;27;20047;-73
2022/04/01 09:40:21;;;;;;;7.40;3.13;;;3.00;99.90;;;;;;5116435;27;20086;-74
2022/04/01 09:42:59;;;;;;;3.95;2.90;;;3.00;99.90;;;;;;5116911;27;20403;-74
2022/04/01 09:45:29;;;;;;;3.45;2.72;;;3.10;99.90;;;;;;5084341;27;20387;-74
2022/04/01 09:48:00;;;;;;;4.35;3.03;;;3.10;99.90;;;;;;5100220;27;20125;-74
2022/04/01 09:50:33;;;;;;;4.70;3.03;;;3.20;99.90;;;;;;5134391;27;20042;-74
2022/04/01 09:53:19;;;;;;;5.65;2.95;;;3.30;99.90;;;;;;5134802;27;20487;-74
2022/04/01 09:55:49;;;;;;;4.75;3.10;;;3.40;99.90;;;;;;5101351;27;20114;-74
2022/04/01 09:58:15;;;;;;;5.50;2.90;;;3.30;99.90;;;;;;5116229;27;20420;-74
2022/04/01 10:00:41;;;;;;;4.40;3.10;;;3.20;99.90;;;;;;5099566;27;20137;-74
2022/04/01 10:03:08;;;;;;;4.13;3.40;;;3.30;99.90;;;;;;5134105;27;20138;-74
2022/04/01 10:05:37;;;;;;;5.15;3.00;;;3.40;99.90;;;;;;5116387;27;20055;-74
2022/04/01 10:08:04;;;;;;;6.22;3.10;;;3.40;99.90;;;;;;5116212;27;20095;-74
2022/04/01 10:10:30;;;;;;;5.40;2.80;;;3.50;99.90;;;;;;5116430;27;20069;-74
2022/04/01 10:13:12;;;;;;;4.72;2.80;;;3.50;99.90;;;;;;5116334;27;20047;-74
2022/04/01 10:15:40;;;;;;;4.55;2.75;;;3.60;99.90;;;;;;5084477;27;20046;-74
2022/04/01 10:18:05;;;;;;;4.50;2.63;;;3.60;99.90;;;;;;5115867;27;20047;-75
2022/04/01 10:20:36;;;;;;;5.13;2.40;;;3.60;99.90;;;;;;5115887;27;20050;-75
2022/04/01 10:23:06;;;;;;;3.47;2.90;;;3.70;99.90;;;;;;5134315;27;20160;-75
2022/04/01 10:25:42;;;;;;;4.78;2.67;;;3.70;99.90;;;;;;5099529;27;20046;-75
2022/04/01 10:28:07;;;;;;;4.88;2.80;;;3.70;99.90;;;;;;5133715;27;20047;-74
2022/04/01 10:30:35;;;;;;;3.67;2.40;;;3.80;99.90;;;;;;5082055;27;20078;-74
2022/04/01 10:33:04;;;;;;;3.97;2.42;;;3.80;99.90;;;;;;5116041;27;20051;-75
2022/04/01 10:35:34;;;;;;;5.05;2.50;;;3.90;99.90;;;;;;5115483;27;20425;-73
2022/04/01 10:38:06;;;;;;;4.80;2.72;;;4.00;99.90;;;;;;5115756;27;20133;-75
2022/04/01 10:40:50;;;;;;;2.63;2.20;;;4.10;99.90;;;;;;5133409;27;20043;-74
2022/04/01 10:43:26;;;;;;;5.85;2.60;;;4.10;99.90;;;;;;5115371;27;20047;-74
2022/04/01 10:46:10;;;;;;;4.03;2.47;;;4.20;99.90;;;;;;5133990;27;20125;-74
2022/04/01 10:51:44;;;;;;;4.00;2.40;;;4.30;99.90;;;;;;5100904;27;20054;-74
2022/04/01 10:54:12;;;;;;;3.58;2.35;;;4.30;99.90;;;;;;5118189;27;20035;-75
2022/04/01 10:56:43;;;;;;;2.63;2.10;;;4.30;99.90;;;;;;5133466;27;20503;-74
2022/04/01 10:59:16;;;;;;;5.90;2.33;;;4.30;99.90;;;;;;5115516;28;20047;-74
2022/04/01 11:01:57;;;;;;;3.45;2.20;;;4.40;99.90;;;;;;5081975;28;20070;-74
2022/04/01 11:04:24;;;;;;;8.13;2.53;;;4.40;99.90;;;;;;5133276;28;20058;-73
2022/04/01 11:06:51;;;;;;;4.38;2.20;;;4.50;99.90;;;;;;5115596;28;20076;-73
2022/04/01 11:09:36;;;;;;;4.10;2.20;;;4.50;99.90;;;;;;5114928;28;20039;-74
2022/04/01 11:12:18;;;;;;;4.63;2.15;;;4.50;99.90;;;;;;5133876;28;20039;-74
2022/04/01 11:17:27;;;;;;;3.38;1.80;;;4.70;99.90;;;;;;5133051;28;20403;-74
2022/04/01 11:20:03;;;;;;;3.63;2.22;;;4.50;99.90;;;;;;5133497;28;20386;-73
2022/04/01 11:22:39;;;;;;;3.95;2.40;;;4.40;99.90;;;;;;5132995;28;20050;-74
2022/04/01 11:25:08;;;;;;;4.53;2.20;;;4.40;99.90;;;;;;5133453;28;20117;-74
2022/04/01 11:27:34;;;;;;;4.05;2.33;;;4.30;99.90;;;;;;5132990;28;20051;-74
2022/04/01 11:30:13;;;;;;;3.65;2.00;;;4.30;99.90;;;;;;5115159;28;20122;-75
2022/04/01 11:32:44;;;;;;;2.90;2.28;;;4.30;99.90;;;;;;5133467;28;20047;-74
2022/04/01 11:35:11;;;;;;;3.97;2.22;;;4.40;99.90;;;;;;5099162;28;20500;-74
2022/04/01 11:37:49;;;;;;;4.80;2.10;;;4.40;99.90;;;;;;5114697;28;20047;-74
2022/04/01 11:40:25;;;;;;;4.47;2.25;;;4.30;99.90;;;;;;5115468;28;20046;-79
2022/04/01 11:42:58;;;;;;;4.18;2.72;;;4.50;99.90;;;;;;5133382;28;20051;-74
2022/04/01 11:45:26;;;;;;;3.55;2.28;;;4.50;99.90;;;;;;5098720;28;20059;-74
2022/04/01 11:47:52;;;;;;;3.45;2.00;;;4.50;99.90;;;;;;5134308;27;20054;-74
2022/04/01 11:50:20;;;;;;;3.03;2.30;;;4.60;99.90;;;;;;5118265;27;20551;-74
2022/04/01 11:52:46;;;;;;;4.45;2.20;;;4.70;99.90;;;;;;5137162;27;20050;-73
2022/04/01 11:55:13;;;;;;;2.70;2.22;;;4.80;99.90;;;;;;5118836;27;20047;-74
2022/04/01 11:57:39;;;;;;;6.05;2.03;;;4.80;99.90;;;;;;5136681;27;20043;-74
2022/04/01 12:00:15;;;;;;;3.35;2.00;;;4.90;99.90;;;;;;5101752;27;20618;-74
2022/04/01 12:02:41;;;;;;;2.78;1.90;;;4.90;99.90;;;;;;5118121;27;20047;-74
2022/04/01 12:05:07;;;;;;;2.80;1.92;;;4.90;99.90;;;;;;5118786;27;20095;-74
2022/04/01 12:10:21;;;;;;;4.28;1.80;;;5.00;99.90;;;;;;5136862;27;20448;-74
2022/04/01 12:12:54;;;;;;;3.83;1.50;;;5.10;99.90;;;;;;5101687;27;20079;-74
2022/04/01 12:15:30;;;;;;;3.67;1.80;;;5.10;99.90;;;;;;5136512;27;20070;-78
2022/04/01 12:17:55;;;;;;;4.25;1.75;;;5.20;99.90;;;;;;5136658;27;20126;-74
2022/04/01 12:20:21;;;;;;;2.33;1.70;;;5.20;99.90;;;;;;5117745;27;20129;-75
2022/04/01 12:22:48;;;;;;;3.63;1.90;;;5.20;99.90;;;;;;5136544;27;20101;-74
2022/04/01 12:25:14;;;;;;;3.38;1.65;;;5.20;99.90;;;;;;5118451;27;20419;-74
2022/04/01 12:27:59;;;;;;;2.85;1.55;;;5.20;99.90;;;;;;5117806;27;20050;-74
2022/04/01 12:30:44;;;;;;;3.13;1.55;;;5.20;99.90;;;;;;5135707;27;20487;-74
2022/04/01 12:33:20;;;;;;;3.42;1.70;;;5.20;99.90;;;;;;5136440;27;20368;-74
2022/04/01 12:36:08;;;;;;;2.88;1.60;;;5.20;99.90;;;;;;5117638;27;20515;-74
2022/04/01 12:38:38;;;;;;;4.10;1.70;;;5.30;99.90;;;;;;5117695;27;20107;-74
2022/04/01 12:41:13;;;;;;;4.90;1.63;;;5.30;99.90;;;;;;5101068;27;20455;-75
2022/04/01 12:43:44;;;;;;;5.22;1.30;;;5.30;99.90;;;;;;5135717;27;20099;-74
2022/04/01 12:46:29;;;;;;;4.22;1.63;;;5.40;99.90;;;;;;5136283;27;20043;-74
2022/04/01 12:48:59;;;;;;;3.20;1.40;;;5.30;97.10;;;;;;5136079;27;20131;-74
2022/04/01 12:51:33;;;;;;;1.52;1.20;;;5.40;99.00;;;;;;5135566;27;20051;-76
2022/04/01 12:54:09;;;;;;;2.97;1.40;;;5.40;99.40;;;;;;5117834;27;20039;-74
2022/04/01 12:56:39;;;;;;;4.68;1.52;;;5.40;98.50;;;;;;5118235;27;20051;-74
2022/04/01 12:59:07;;;;;;;3.13;1.60;;;5.40;95.00;;;;;;5083792;27;20047;-74
2022/04/01 13:01:34;;;;;;;2.20;1.20;;;5.40;96.20;;;;;;5100573;27;20039;-74
2022/04/01 13:04:00;;;;;;;1.40;1.30;;;5.30;96.90;;;;;;5117406;27;20047;-75
2022/04/01 13:06:27;;;;;;;3.20;1.30;;;5.20;97.70;;;;;;5100524;27;20057;-79
2022/04/01 13:09:03;;;;;;;3.25;1.60;;;5.20;97.20;;;;;;5117373;27;20100;-74
2022/04/01 13:11:38;;;;;;;5.93;1.75;;;5.00;93.10;;;;;;5135181;27;20043;-75
2022/04/01 13:14:24;;;;;;;3.08;1.67;;;5.00;97.60;;;;;;5117240;27;20046;-75
2022/04/01 13:16:51;;;;;;;3.00;1.45;;;5.00;95.70;;;;;;5116937;27;20455;-74
2022/04/01 13:19:21;;;;;;;6.78;1.92;;;5.10;97.60;;;;;;5117021;27;20035;-74
2022/04/01 13:21:47;;;;;;;3.38;1.40;;;5.10;96.90;;;;;;5134991;27;20047;-74